This is the latest recevied weather packets stored in our database for station/object KD2DXJ. If no packets are shown the sender has not sent any weather packets the latest 10 day(s).
| Time | Temp. | Humidity | Pressure | Rain* | Wind** | Luminosity | Snow |
|---|---|---|---|---|---|---|---|
| 1778171479 | 10° C | 46% | 1009.5 hPa | 0 mm | - | 201 W/m² | - |
| 1778171174 | 10° C | 47% | 1009.6 hPa | 0 mm | - | 185 W/m² | - |
| 1778170871 | 9.44° C | 45% | 1009.6 hPa | 0 mm | - | 449 W/m² | - |
| 1778170567 | 10° C | 45% | 1009.8 hPa | 0 mm | - | 385 W/m² | - |
| 1778170264 | 10° C | 50% | 1009.7 hPa | 0 mm | - | 404 W/m² | - |
| 1778169961 | 10° C | 51% | 1009.6 hPa | 0 mm | - | 295 W/m² | - |
| 1778169657 | 10° C | 46% | 1009.6 hPa | 0 mm | - | 649 W/m² | - |
| 1778169352 | 10.56° C | 48% | 1009.7 hPa | 0 mm | - | 235 W/m² | - |
| 1778169049 | 11.11° C | 47% | 1009.8 hPa | 0 mm | - | 297 W/m² | - |
| 1778168746 | 10° C | 56% | 1010 hPa | 0 mm | - | 808 W/m² | - |
| 1778168443 | 10.56° C | 51% | 1009.7 hPa | 0 mm | - | 214 W/m² | - |
| 1778168140 | 10° C | 49% | 1009.7 hPa | 0 mm | - | 722 W/m² | - |
| 1778167836 | 11.11° C | 52% | 1010.2 hPa | 0 mm | - | 199 W/m² | - |
| 1778167532 | 10.56° C | 47% | 1010 hPa | 0 mm | - | 749 W/m² | - |
| 1778167229 | 10.56° C | 46% | 1009.9 hPa | 0 mm | - | 253 W/m² | - |
| 1778166925 | 10° C | 50% | 1010 hPa | 0 mm | - | 659 W/m² | - |
| 1778166622 | 10.56° C | 52% | 1010 hPa | 0 mm | - | 625 W/m² | - |
| 1778166319 | 10.56° C | 48% | 1009.9 hPa | 0 mm | - | 624 W/m² | - |
| 1778166016 | 10.56° C | 49% | 1009.7 hPa | 0 mm | - | 611 W/m² | - |
| 1778165710 | 10° C | 45% | 1009.8 hPa | 0 mm | - | 601 W/m² | - |
| 1778165409 | 10° C | 59% | 1010 hPa | 0 mm | - | 590 W/m² | - |
| 1778165105 | 10° C | 51% | 1010.2 hPa | 0 mm | - | 583 W/m² | - |
| 1778164802 | 10° C | 52% | 1010.2 hPa | 0 mm | - | 572 W/m² | - |
| 1778164499 | 10° C | 48% | 1010.2 hPa | 0 mm | - | 565 W/m² | - |
| 1778164196 | 10° C | 47% | 1010.3 hPa | 0 mm | - | 553 W/m² | - |
* Rain latest hour (hover to see other rain measurements)
** Current wind speed in m/s (hover to see current wind gust speed)